sensor_id;sensor_type;location;lat;lon;timestamp;pressure;altitude;pressure_sealevel;temperature;humidity
13456;BME280;6800;50.940;6.940;2023-05-22T00:03:33;100578.81;;;28.31;48.38
13456;BME280;6800;50.940;6.940;2023-05-22T00:07:37;100573.47;;;28.25;47.94
13456;BME280;6800;50.940;6.940;2023-05-22T00:11:39;100569.34;;;28.29;48.11
13456;BME280;6800;50.940;6.940;2023-05-22T00:15:40;100575.50;;;28.23;47.79
13456;BME280;6800;50.940;6.940;2023-05-22T00:19:42;100566.03;;;28.20;47.85
13456;BME280;6800;50.940;6.940;2023-05-22T00:23:43;100563.31;;;28.14;47.52
13456;BME280;6800;50.940;6.940;2023-05-22T00:27:46;100563.94;;;28.16;48.08
13456;BME280;6800;50.940;6.940;2023-05-22T00:31:47;100555.03;;;28.09;47.92
13456;BME280;6800;50.940;6.940;2023-05-22T00:35:49;100551.13;;;28.11;47.48
13456;BME280;6800;50.940;6.940;2023-05-22T00:39:51;100554.63;;;28.05;47.17
13456;BME280;6800;50.940;6.940;2023-05-22T00:43:52;100557.50;;;28.04;46.80
13456;BME280;6800;50.940;6.940;2023-05-22T00:47:54;100556.06;;;28.01;46.89
13456;BME280;6800;50.940;6.940;2023-05-22T00:51:56;100559.13;;;27.98;47.47
13456;BME280;6800;50.940;6.940;2023-05-22T00:55:58;100553.94;;;27.90;47.54
13456;BME280;6800;50.940;6.940;2023-05-22T01:00:01;100554.34;;;27.94;47.25
13456;BME280;6800;50.940;6.940;2023-05-22T01:04:04;100553.53;;;27.87;47.22
13456;BME280;6800;50.940;6.940;2023-05-22T01:08:08;100557.88;;;27.94;46.66
13456;BME280;6800;50.940;6.940;2023-05-22T01:12:21;100557.44;;;27.84;47.21
13456;BME280;6800;50.940;6.940;2023-05-22T01:16:39;100564.63;;;27.77;47.06
13456;BME280;6800;50.940;6.940;2023-05-22T01:21:08;100559.69;;;27.87;47.21
13456;BME280;6800;50.940;6.940;2023-05-22T01:25:30;100559.50;;;27.82;47.39
13456;BME280;6800;50.940;6.940;2023-05-22T01:33:55;100555.97;;;27.81;46.50
13456;BME280;6800;50.940;6.940;2023-05-22T01:37:59;100560.91;;;27.71;47.21
13456;BME280;6800;50.940;6.940;2023-05-22T01:42:00;100560.28;;;27.69;46.98
13456;BME280;6800;50.940;6.940;2023-05-22T01:46:03;100553.84;;;27.70;46.94
13456;BME280;6800;50.940;6.940;2023-05-22T01:50:05;100548.53;;;27.77;46.74
13456;BME280;6800;50.940;6.940;2023-05-22T01:54:24;100550.38;;;27.83;47.06
13456;BME280;6800;50.940;6.940;2023-05-22T02:03:05;100544.16;;;27.69;47.01
13456;BME280;6800;50.940;6.940;2023-05-22T02:07:10;100547.66;;;27.70;47.10
13456;BME280;6800;50.940;6.940;2023-05-22T02:11:13;100550.13;;;27.65;47.45
13456;BME280;6800;50.940;6.940;2023-05-22T02:15:16;100544.53;;;27.60;47.26
13456;BME280;6800;50.940;6.940;2023-05-22T02:19:18;100543.03;;;27.51;46.92
13456;BME280;6800;50.940;6.940;2023-05-22T02:23:20;100547.59;;;27.50;47.47
13456;BME280;6800;50.940;6.940;2023-05-22T02:27:21;100549.41;;;27.43;47.60
13456;BME280;6800;50.940;6.940;2023-05-22T02:31:23;100538.06;;;27.41;47.81
13456;BME280;6800;50.940;6.940;2023-05-22T02:35:24;100540.50;;;27.36;48.03
13456;BME280;6800;50.940;6.940;2023-05-22T02:39:26;100540.13;;;27.39;47.91
13456;BME280;6800;50.940;6.940;2023-05-22T02:43:27;100542.38;;;27.36;47.63
13456;BME280;6800;50.940;6.940;2023-05-22T02:47:28;100537.97;;;27.28;48.07
13456;BME280;6800;50.940;6.940;2023-05-22T02:51:30;100542.50;;;27.28;48.17
13456;BME280;6800;50.940;6.940;2023-05-22T02:55:31;100532.19;;;27.25;48.11
13456;BME280;6800;50.940;6.940;2023-05-22T02:59:33;100531.97;;;27.26;48.47
13456;BME280;6800;50.940;6.940;2023-05-22T03:03:36;100522.25;;;27.25;48.18
13456;BME280;6800;50.940;6.940;2023-05-22T03:07:38;100517.94;;;27.24;48.32
13456;BME280;6800;50.940;6.940;2023-05-22T03:11:40;100525.53;;;27.14;48.00
13456;BME280;6800;50.940;6.940;2023-05-22T03:15:41;100524.91;;;27.12;48.43
13456;BME280;6800;50.940;6.940;2023-05-22T03:19:43;100521.97;;;27.07;48.42
13456;BME280;6800;50.940;6.940;2023-05-22T03:23:45;100521.59;;;27.10;48.57
13456;BME280;6800;50.940;6.940;2023-05-22T03:27:47;100518.38;;;26.93;48.97
13456;BME280;6800;50.940;6.940;2023-05-22T03:31:48;100517.81;;;27.04;48.68
13456;BME280;6800;50.940;6.940;2023-05-22T03:35:50;100522.13;;;26.99;48.96
13456;BME280;6800;50.940;6.940;2023-05-22T03:39:51;100519.88;;;27.02;48.65
13456;BME280;6800;50.940;6.940;2023-05-22T03:43:53;100528.97;;;27.01;48.28
13456;BME280;6800;50.940;6.940;2023-05-22T03:47:54;100532.41;;;26.95;48.82
13456;BME280;6800;50.940;6.940;2023-05-22T03:51:56;100527.88;;;26.96;48.60
13456;BME280;6800;50.940;6.940;2023-05-22T03:55:57;100535.75;;;26.97;48.73
13456;BME280;6800;50.940;6.940;2023-05-22T03:59:59;100539.22;;;26.98;48.31
13456;BME280;6800;50.940;6.940;2023-05-22T04:04:09;100541.81;;;26.85;48.50
13456;BME280;6800;50.940;6.940;2023-05-22T04:08:12;100543.31;;;26.94;48.56
13456;BME280;6800;50.940;6.940;2023-05-22T04:12:13;100547.38;;;26.83;48.08
13456;BME280;6800;50.940;6.940;2023-05-22T04:16:16;100551.84;;;26.55;48.81
13456;BME280;6800;50.940;6.940;2023-05-22T04:20:17;100559.94;;;26.83;48.47
13456;BME280;6800;50.940;6.940;2023-05-22T04:24:19;100566.19;;;26.90;48.13
13456;BME280;6800;50.940;6.940;2023-05-22T04:28:21;100567.06;;;26.97;47.43
13456;BME280;6800;50.940;6.940;2023-05-22T04:32:22;100565.41;;;26.96;47.63
13456;BME280;6800;50.940;6.940;2023-05-22T04:36:24;100566.22;;;26.96;47.29
13456;BME280;6800;50.940;6.940;2023-05-22T04:40:29;100576.63;;;27.06;46.98
13456;BME280;6800;50.940;6.940;2023-05-22T04:44:33;100578.16;;;26.94;47.19
13456;BME280;6800;50.940;6.940;2023-05-22T04:48:35;100573.00;;;27.20;46.71
13456;BME280;6800;50.940;6.940;2023-05-22T04:52:37;100568.91;;;27.31;46.49
13456;BME280;6800;50.940;6.940;2023-05-22T04:56:38;100575.56;;;27.35;46.62
13456;BME280;6800;50.940;6.940;2023-05-22T05:00:41;100577.91;;;27.51;46.39
13456;BME280;6800;50.940;6.940;2023-05-22T05:04:42;100569.75;;;27.31;46.41
13456;BME280;6800;50.940;6.940;2023-05-22T05:08:44;100573.88;;;27.68;45.70
13456;BME280;6800;50.940;6.940;2023-05-22T05:12:46;100576.72;;;28.01;45.31
13456;BME280;6800;50.940;6.940;2023-05-22T05:16:48;100582.78;;;27.75;45.36
13456;BME280;6800;50.940;6.940;2023-05-22T05:20:51;100573.19;;;28.00;44.86
13456;BME280;6800;50.940;6.940;2023-05-22T05:24:53;100584.06;;;27.86;44.53
13456;BME280;6800;50.940;6.940;2023-05-22T05:28:54;100586.50;;;28.47;43.30
13456;BME280;6800;50.940;6.940;2023-05-22T05:32:57;100578.91;;;28.90;43.32
13456;BME280;6800;50.940;6.940;2023-05-22T05:37:00;100586.13;;;28.83;43.08
13456;BME280;6800;50.940;6.940;2023-05-22T05:41:01;100589.59;;;29.36;41.69
13456;BME280;6800;50.940;6.940;2023-05-22T05:45:03;100584.03;;;29.24;42.31
13456;BME280;6800;50.940;6.940;2023-05-22T05:49:06;100590.50;;;29.68;41.37
13456;BME280;6800;50.940;6.940;2023-05-22T05:53:10;100594.59;;;30.28;40.12
13456;BME280;6800;50.940;6.940;2023-05-22T05:57:13;100607.09;;;30.53;39.72
13456;BME280;6800;50.940;6.940;2023-05-22T06:01:14;100608.31;;;30.57;39.78
13456;BME280;6800;50.940;6.940;2023-05-22T06:05:16;100605.31;;;30.65;39.00
13456;BME280;6800;50.940;6.940;2023-05-22T06:09:19;100607.84;;;30.60;39.37
13456;BME280;6800;50.940;6.940;2023-05-22T06:13:21;100607.31;;;30.14;40.08
13456;BME280;6800;50.940;6.940;2023-05-22T06:17:22;100610.25;;;29.49;40.52
13456;BME280;6800;50.940;6.940;2023-05-22T06:21:24;100617.78;;;28.88;41.48
13456;BME280;6800;50.940;6.940;2023-05-22T06:25:26;100608.44;;;29.03;41.67
13456;BME280;6800;50.940;6.940;2023-05-22T06:29:30;100609.34;;;29.81;40.81
13456;BME280;6800;50.940;6.940;2023-05-22T06:33:31;100611.56;;;29.90;40.20
13456;BME280;6800;50.940;6.940;2023-05-22T06:37:34;100621.22;;;29.54;40.67
13456;BME280;6800;50.940;6.940;2023-05-22T06:41:36;100623.41;;;29.83;40.07
13456;BME280;6800;50.940;6.940;2023-05-22T06:45:38;100633.00;;;29.53;41.42
13456;BME280;6800;50.940;6.940;2023-05-22T06:49:39;100632.78;;;30.12;40.61
13456;BME280;6800;50.940;6.940;2023-05-22T06:53:41;100638.56;;;30.22;39.66
13456;BME280;6800;50.940;6.940;2023-05-22T06:57:42;100638.28;;;29.98;39.90
13456;BME280;6800;50.940;6.940;2023-05-22T07:01:44;100645.56;;;29.85;40.42
13456;BME280;6800;50.940;6.940;2023-05-22T07:05:45;100644.34;;;30.32;39.77
13456;BME280;6800;50.940;6.940;2023-05-22T07:09:48;100643.50;;;30.25;40.10
13456;BME280;6800;50.940;6.940;2023-05-22T07:13:50;100652.31;;;30.51;39.29
13456;BME280;6800;50.940;6.940;2023-05-22T07:17:51;100647.03;;;30.63;39.27
13456;BME280;6800;50.940;6.940;2023-05-22T07:21:53;100646.84;;;30.64;38.31
13456;BME280;6800;50.940;6.940;2023-05-22T07:25:54;100645.59;;;30.60;38.86
13456;BME280;6800;50.940;6.940;2023-05-22T07:29:56;100647.47;;;30.91;38.32
13456;BME280;6800;50.940;6.940;2023-05-22T07:33:57;100653.66;;;30.60;38.70
13456;BME280;6800;50.940;6.940;2023-05-22T07:37:58;100644.78;;;30.60;38.53
13456;BME280;6800;50.940;6.940;2023-05-22T07:42:00;100655.06;;;30.38;38.93
13456;BME280;6800;50.940;6.940;2023-05-22T07:46:02;100659.13;;;30.54;38.74
13456;BME280;6800;50.940;6.940;2023-05-22T07:50:04;100659.84;;;30.36;39.70
13456;BME280;6800;50.940;6.940;2023-05-22T07:54:06;100667.00;;;30.55;39.38
13456;BME280;6800;50.940;6.940;2023-05-22T07:58:08;100663.19;;;30.32;39.60
13456;BME280;6800;50.940;6.940;2023-05-22T08:02:11;100667.91;;;30.43;38.61
13456;BME280;6800;50.940;6.940;2023-05-22T08:06:12;100672.38;;;30.55;39.10
13456;BME280;6800;50.940;6.940;2023-05-22T08:10:18;100667.34;;;30.65;38.81
13456;BME280;6800;50.940;6.940;2023-05-22T08:14:20;100666.66;;;30.76;38.58
13456;BME280;6800;50.940;6.940;2023-05-22T08:18:22;100678.19;;;31.15;38.16
13456;BME280;6800;50.940;6.940;2023-05-22T08:22:23;100666.59;;;30.90;37.80
13456;BME280;6800;50.940;6.940;2023-05-22T08:26:25;100677.59;;;30.81;38.53
13456;BME280;6800;50.940;6.940;2023-05-22T08:30:26;100675.44;;;30.65;37.74
13456;BME280;6800;50.940;6.940;2023-05-22T08:34:28;100680.44;;;31.18;37.81
13456;BME280;6800;50.940;6.940;2023-05-22T08:38:29;100674.72;;;31.08;36.99
13456;BME280;6800;50.940;6.940;2023-05-22T08:42:30;100681.03;;;30.64;38.30
13456;BME280;6800;50.940;6.940;2023-05-22T08:46:32;100683.97;;;30.94;38.31
13456;BME280;6800;50.940;6.940;2023-05-22T08:50:40;100682.56;;;31.09;37.39
13456;BME280;6800;50.940;6.940;2023-05-22T08:54:48;100693.31;;;31.16;37.70
13456;BME280;6800;50.940;6.940;2023-05-22T08:58:52;100691.59;;;30.97;37.55
13456;BME280;6800;50.940;6.940;2023-05-22T09:02:54;100697.94;;;30.77;37.94
13456;BME280;6800;50.940;6.940;2023-05-22T09:06:56;100697.22;;;31.20;37.21
13456;BME280;6800;50.940;6.940;2023-05-22T09:10:57;100694.91;;;30.23;38.64
13456;BME280;6800;50.940;6.940;2023-05-22T09:15:07;100701.41;;;30.91;37.36
13456;BME280;6800;50.940;6.940;2023-05-22T09:19:11;100695.22;;;31.15;37.71
13456;BME280;6800;50.940;6.940;2023-05-22T09:23:14;100696.75;;;31.05;37.44
13456;BME280;6800;50.940;6.940;2023-05-22T09:27:21;100695.16;;;30.59;37.93
13456;BME280;6800;50.940;6.940;2023-05-22T09:31:23;100693.03;;;30.37;38.73
13456;BME280;6800;50.940;6.940;2023-05-22T09:35:24;100696.75;;;30.29;38.86
13456;BME280;6800;50.940;6.940;2023-05-22T09:39:37;100693.75;;;30.50;38.66
13456;BME280;6800;50.940;6.940;2023-05-22T09:43:48;100699.59;;;30.03;38.81
13456;BME280;6800;50.940;6.940;2023-05-22T09:47:50;100704.53;;;30.81;37.91
13456;BME280;6800;50.940;6.940;2023-05-22T09:51:53;100709.47;;;30.98;37.27
13456;BME280;6800;50.940;6.940;2023-05-22T09:55:55;100706.16;;;30.96;37.43
13456;BME280;6800;50.940;6.940;2023-05-22T10:00:02;100713.19;;;30.97;37.32
13456;BME280;6800;50.940;6.940;2023-05-22T10:04:11;100708.56;;;31.04;37.14
13456;BME280;6800;50.940;6.940;2023-05-22T10:08:22;100708.25;;;31.18;36.90
13456;BME280;6800;50.940;6.940;2023-05-22T10:12:27;100714.97;;;30.78;37.09
13456;BME280;6800;50.940;6.940;2023-05-22T10:16:34;100716.06;;;31.26;37.03
13456;BME280;6800;50.940;6.940;2023-05-22T10:20:38;100713.16;;;31.03;37.34
13456;BME280;6800;50.940;6.940;2023-05-22T10:24:41;100714.13;;;31.58;36.86
13456;BME280;6800;50.940;6.940;2023-05-22T10:28:46;100709.97;;;31.62;36.29
13456;BME280;6800;50.940;6.940;2023-05-22T10:33:02;100703.44;;;31.70;36.13
13456;BME280;6800;50.940;6.940;2023-05-22T10:37:36;100698.44;;;32.57;34.87
13456;BME280;6800;50.940;6.940;2023-05-22T10:41:41;100710.31;;;32.08;35.62
13456;BME280;6800;50.940;6.940;2023-05-22T10:45:45;100695.72;;;32.27;35.38
13456;BME280;6800;50.940;6.940;2023-05-22T10:49:48;100692.19;;;32.09;35.24
13456;BME280;6800;50.940;6.940;2023-05-22T10:53:52;100696.47;;;31.62;36.11
13456;BME280;6800;50.940;6.940;2023-05-22T10:58:11;100698.88;;;31.70;35.45
13456;BME280;6800;50.940;6.940;2023-05-22T11:02:26;100685.63;;;32.53;34.55
13456;BME280;6800;50.940;6.940;2023-05-22T11:06:48;100687.28;;;32.65;34.52
13456;BME280;6800;50.940;6.940;2023-05-22T11:11:11;100679.50;;;32.98;33.71
13456;BME280;6800;50.940;6.940;2023-05-22T11:15:13;100681.66;;;33.31;33.28
13456;BME280;6800;50.940;6.940;2023-05-22T11:19:16;100682.47;;;33.43;33.32
13456;BME280;6800;50.940;6.940;2023-05-22T11:23:20;100672.81;;;33.01;33.56
13456;BME280;6800;50.940;6.940;2023-05-22T11:27:24;100677.22;;;32.43;34.66
13456;BME280;6800;50.940;6.940;2023-05-22T11:31:26;100687.53;;;33.05;34.11
13456;BME280;6800;50.940;6.940;2023-05-22T11:35:27;100683.28;;;33.32;33.23
13456;BME280;6800;50.940;6.940;2023-05-22T11:39:31;100674.41;;;32.90;33.67
13456;BME280;6800;50.940;6.940;2023-05-22T11:43:32;100671.41;;;33.45;32.92
13456;BME280;6800;50.940;6.940;2023-05-22T11:47:35;100667.19;;;33.72;32.70
13456;BME280;6800;50.940;6.940;2023-05-22T11:51:40;100662.81;;;34.22;31.42
13456;BME280;6800;50.940;6.940;2023-05-22T11:55:42;100658.00;;;34.52;30.99
13456;BME280;6800;50.940;6.940;2023-05-22T11:59:44;100653.72;;;34.17;31.71
13456;BME280;6800;50.940;6.940;2023-05-22T12:03:49;100659.41;;;34.15;31.49
13456;BME280;6800;50.940;6.940;2023-05-22T12:07:51;100654.13;;;34.37;31.68
13456;BME280;6800;50.940;6.940;2023-05-22T12:11:56;100648.06;;;34.46;30.94
13456;BME280;6800;50.940;6.940;2023-05-22T12:16:00;100644.00;;;34.94;30.96
13456;BME280;6800;50.940;6.940;2023-05-22T12:20:03;100636.44;;;33.43;32.84
13456;BME280;6800;50.940;6.940;2023-05-22T12:24:05;100646.03;;;34.25;31.86
13456;BME280;6800;50.940;6.940;2023-05-22T12:28:06;100643.25;;;34.20;32.28
13456;BME280;6800;50.940;6.940;2023-05-22T12:32:10;100642.63;;;34.46;31.89
13456;BME280;6800;50.940;6.940;2023-05-22T12:36:11;100644.25;;;34.31;32.03
13456;BME280;6800;50.940;6.940;2023-05-22T12:40:13;100639.31;;;34.56;31.33
13456;BME280;6800;50.940;6.940;2023-05-22T12:44:15;100626.16;;;34.20;32.77
13456;BME280;6800;50.940;6.940;2023-05-22T12:48:17;100630.84;;;34.24;32.26
13456;BME280;6800;50.940;6.940;2023-05-22T12:52:22;100621.50;;;33.29;33.35
13456;BME280;6800;50.940;6.940;2023-05-22T12:56:24;100629.09;;;32.86;34.63
13456;BME280;6800;50.940;6.940;2023-05-22T13:00:25;100619.84;;;33.40;33.68
13456;BME280;6800;50.940;6.940;2023-05-22T13:04:28;100614.16;;;33.64;33.47
13456;BME280;6800;50.940;6.940;2023-05-22T13:08:29;100624.69;;;33.03;34.40
13456;BME280;6800;50.940;6.940;2023-05-22T13:12:31;100620.44;;;33.30;33.92
13456;BME280;6800;50.940;6.940;2023-05-22T13:16:32;100614.38;;;32.70;34.74
13456;BME280;6800;50.940;6.940;2023-05-22T13:20:34;100607.81;;;32.37;35.02
13456;BME280;6800;50.940;6.940;2023-05-22T13:24:38;100615.09;;;32.66;35.53
13456;BME280;6800;50.940;6.940;2023-05-22T13:28:46;100618.59;;;32.66;35.11
13456;BME280;6800;50.940;6.940;2023-05-22T13:32:48;100620.13;;;32.62;35.24
13456;BME280;6800;50.940;6.940;2023-05-22T13:36:50;100634.88;;;32.78;34.90
13456;BME280;6800;50.940;6.940;2023-05-22T13:40:51;100631.88;;;32.56;35.22
13456;BME280;6800;50.940;6.940;2023-05-22T13:44:52;100625.34;;;32.75;35.36
13456;BME280;6800;50.940;6.940;2023-05-22T13:48:54;100629.91;;;32.75;34.84
13456;BME280;6800;50.940;6.940;2023-05-22T13:52:55;100629.16;;;33.09;34.32
13456;BME280;6800;50.940;6.940;2023-05-22T13:56:56;100631.72;;;32.81;35.02
13456;BME280;6800;50.940;6.940;2023-05-22T14:01:00;100635.63;;;33.08;35.12
13456;BME280;6800;50.940;6.940;2023-05-22T14:05:01;100633.88;;;33.14;34.29
13456;BME280;6800;50.940;6.940;2023-05-22T14:09:03;100643.66;;;33.15;34.00
13456;BME280;6800;50.940;6.940;2023-05-22T14:13:07;100632.19;;;33.47;33.91
13456;BME280;6800;50.940;6.940;2023-05-22T14:17:08;100632.63;;;32.98;34.73
13456;BME280;6800;50.940;6.940;2023-05-22T14:21:10;100632.81;;;33.38;34.18
13456;BME280;6800;50.940;6.940;2023-05-22T14:25:11;100639.28;;;33.37;33.69
13456;BME280;6800;50.940;6.940;2023-05-22T14:29:13;100633.75;;;33.55;34.19
13456;BME280;6800;50.940;6.940;2023-05-22T14:33:14;100625.94;;;33.47;33.90
13456;BME280;6800;50.940;6.940;2023-05-22T14:37:16;100628.78;;;33.17;33.91
13456;BME280;6800;50.940;6.940;2023-05-22T14:41:19;100615.97;;;33.36;33.87
13456;BME280;6800;50.940;6.940;2023-05-22T14:45:21;100608.19;;;33.39;33.65
13456;BME280;6800;50.940;6.940;2023-05-22T14:49:23;100611.72;;;33.40;34.01
13456;BME280;6800;50.940;6.940;2023-05-22T14:53:24;100609.16;;;33.10;34.36
13456;BME280;6800;50.940;6.940;2023-05-22T14:57:26;100603.34;;;33.30;34.26
13456;BME280;6800;50.940;6.940;2023-05-22T15:01:27;100597.34;;;33.39;34.31
13456;BME280;6800;50.940;6.940;2023-05-22T15:05:29;100612.19;;;33.37;34.00
13456;BME280;6800;50.940;6.940;2023-05-22T15:09:31;100603.81;;;32.80;35.01
13456;BME280;6800;50.940;6.940;2023-05-22T15:13:32;100602.47;;;32.48;35.32
13456;BME280;6800;50.940;6.940;2023-05-22T15:17:34;100599.97;;;33.11;34.43
13456;BME280;6800;50.940;6.940;2023-05-22T15:21:35;100593.84;;;33.27;34.82
13456;BME280;6800;50.940;6.940;2023-05-22T15:25:37;100587.94;;;33.53;34.26
13456;BME280;6800;50.940;6.940;2023-05-22T15:29:39;100580.34;;;33.04;34.92
13456;BME280;6800;50.940;6.940;2023-05-22T15:33:40;100570.56;;;33.03;34.99
13456;BME280;6800;50.940;6.940;2023-05-22T15:37:42;100577.94;;;33.42;34.17
13456;BME280;6800;50.940;6.940;2023-05-22T15:41:43;100580.41;;;32.74;35.87
13456;BME280;6800;50.940;6.940;2023-05-22T15:45:58;100585.47;;;33.29;34.68
13456;BME280;6800;50.940;6.940;2023-05-22T15:50:00;100566.03;;;32.85;35.55
13456;BME280;6800;50.940;6.940;2023-05-22T15:54:02;100580.53;;;32.91;35.42
13456;BME280;6800;50.940;6.940;2023-05-22T15:58:04;100572.31;;;33.21;34.92
13456;BME280;6800;50.940;6.940;2023-05-22T16:02:07;100578.72;;;33.43;34.65
13456;BME280;6800;50.940;6.940;2023-05-22T16:06:09;100574.81;;;32.99;35.15
13456;BME280;6800;50.940;6.940;2023-05-22T16:10:11;100577.09;;;32.61;36.04
13456;BME280;6800;50.940;6.940;2023-05-22T16:14:12;100573.59;;;32.95;35.29
13456;BME280;6800;50.940;6.940;2023-05-22T16:18:13;100578.06;;;32.78;35.59
13456;BME280;6800;50.940;6.940;2023-05-22T16:22:15;100580.41;;;32.86;35.22
13456;BME280;6800;50.940;6.940;2023-05-22T16:26:16;100581.97;;;33.17;34.80
13456;BME280;6800;50.940;6.940;2023-05-22T16:30:18;100580.94;;;32.12;36.51
13456;BME280;6800;50.940;6.940;2023-05-22T16:34:19;100586.00;;;32.50;36.17
13456;BME280;6800;50.940;6.940;2023-05-22T16:38:21;100595.34;;;32.77;36.06
13456;BME280;6800;50.940;6.940;2023-05-22T16:42:22;100580.59;;;32.50;35.88
13456;BME280;6800;50.940;6.940;2023-05-22T16:46:25;100586.53;;;32.93;35.45
13456;BME280;6800;50.940;6.940;2023-05-22T16:50:28;100585.84;;;33.09;35.40
13456;BME280;6800;50.940;6.940;2023-05-22T16:54:29;100593.19;;;32.56;36.04
13456;BME280;6800;50.940;6.940;2023-05-22T16:58:30;100596.78;;;32.91;35.33
13456;BME280;6800;50.940;6.940;2023-05-22T17:02:33;100600.28;;;32.80;35.82
13456;BME280;6800;50.940;6.940;2023-05-22T17:06:34;100600.28;;;32.80;35.83
13456;BME280;6800;50.940;6.940;2023-05-22T17:10:36;100605.53;;;32.22;36.36
13456;BME280;6800;50.940;6.940;2023-05-22T17:14:37;100596.19;;;32.36;36.69
13456;BME280;6800;50.940;6.940;2023-05-22T17:18:38;100596.50;;;32.28;36.58
13456;BME280;6800;50.940;6.940;2023-05-22T17:22:40;100610.59;;;32.18;36.88
13456;BME280;6800;50.940;6.940;2023-05-22T17:26:42;100607.47;;;32.03;37.44
13456;BME280;6800;50.940;6.940;2023-05-22T17:30:44;100608.41;;;32.39;36.99
13456;BME280;6800;50.940;6.940;2023-05-22T17:34:46;100606.63;;;32.32;36.74
13456;BME280;6800;50.940;6.940;2023-05-22T17:38:47;100612.59;;;32.53;36.34
13456;BME280;6800;50.940;6.940;2023-05-22T17:42:52;100621.66;;;32.28;36.76
13456;BME280;6800;50.940;6.940;2023-05-22T17:46:54;100626.56;;;32.50;36.51
13456;BME280;6800;50.940;6.940;2023-05-22T17:50:55;100627.84;;;32.17;36.64
13456;BME280;6800;50.940;6.940;2023-05-22T17:54:56;100625.94;;;32.36;36.45
13456;BME280;6800;50.940;6.940;2023-05-22T17:58:58;100630.34;;;32.19;36.94
13456;BME280;6800;50.940;6.940;2023-05-22T18:02:59;100634.81;;;31.95;37.09
13456;BME280;6800;50.940;6.940;2023-05-22T18:07:01;100645.41;;;31.90;37.22
13456;BME280;6800;50.940;6.940;2023-05-22T18:11:03;100641.06;;;32.25;36.79
13456;BME280;6800;50.940;6.940;2023-05-22T18:15:05;100643.88;;;32.01;37.19
13456;BME280;6800;50.940;6.940;2023-05-22T18:19:09;100641.38;;;31.81;37.48
13456;BME280;6800;50.940;6.940;2023-05-22T18:23:11;100646.19;;;31.43;37.19
13456;BME280;6800;50.940;6.940;2023-05-22T18:27:12;100647.22;;;31.42;36.77
13456;BME280;6800;50.940;6.940;2023-05-22T18:31:14;100647.16;;;31.48;36.22
13456;BME280;6800;50.940;6.940;2023-05-22T18:35:15;100667.25;;;31.52;36.68
13456;BME280;6800;50.940;6.940;2023-05-22T18:39:17;100668.00;;;31.17;36.57
13456;BME280;6800;50.940;6.940;2023-05-22T18:43:18;100673.09;;;31.07;36.34
13456;BME280;6800;50.940;6.940;2023-05-22T18:47:23;100689.25;;;30.75;36.83
13456;BME280;6800;50.940;6.940;2023-05-22T18:51:25;100696.34;;;30.70;36.58
13456;BME280;6800;50.940;6.940;2023-05-22T18:55:26;100703.13;;;30.86;35.66
13456;BME280;6800;50.940;6.940;2023-05-22T18:59:28;100708.47;;;30.54;36.81
13456;BME280;6800;50.940;6.940;2023-05-22T19:03:29;100712.56;;;30.63;36.91
13456;BME280;6800;50.940;6.940;2023-05-22T19:07:31;100712.16;;;30.66;36.25
13456;BME280;6800;50.940;6.940;2023-05-22T19:11:33;100714.00;;;30.66;37.31
13456;BME280;6800;50.940;6.940;2023-05-22T19:15:34;100723.16;;;30.58;37.25
13456;BME280;6800;50.940;6.940;2023-05-22T19:19:36;100727.22;;;30.36;37.83
13456;BME280;6800;50.940;6.940;2023-05-22T19:23:37;100734.41;;;29.72;38.56
13456;BME280;6800;50.940;6.940;2023-05-22T19:27:39;100740.63;;;29.98;38.51
13456;BME280;6800;50.940;6.940;2023-05-22T19:31:40;100738.50;;;30.07;38.11
13456;BME280;6800;50.940;6.940;2023-05-22T19:35:42;100747.13;;;30.22;37.67
13456;BME280;6800;50.940;6.940;2023-05-22T19:39:43;100752.25;;;29.73;38.94
13456;BME280;6800;50.940;6.940;2023-05-22T19:43:45;100750.31;;;29.99;38.71
13456;BME280;6800;50.940;6.940;2023-05-22T19:47:46;100753.25;;;29.98;38.82
13456;BME280;6800;50.940;6.940;2023-05-22T19:51:48;100764.66;;;29.93;38.88
13456;BME280;6800;50.940;6.940;2023-05-22T19:55:49;100777.91;;;29.88;38.81
13456;BME280;6800;50.940;6.940;2023-05-22T19:59:52;100784.94;;;29.96;39.47
13456;BME280;6800;50.940;6.940;2023-05-22T20:03:54;100785.78;;;30.03;39.66
13456;BME280;6800;50.940;6.940;2023-05-22T20:07:56;100780.16;;;30.11;39.60
13456;BME280;6800;50.940;6.940;2023-05-22T20:11:58;100789.25;;;30.10;39.72
13456;BME280;6800;50.940;6.940;2023-05-22T20:15:59;100793.59;;;30.18;39.25
13456;BME280;6800;50.940;6.940;2023-05-22T20:20:03;100796.72;;;30.08;39.96
13456;BME280;6800;50.940;6.940;2023-05-22T20:24:08;100797.19;;;29.92;39.84
13456;BME280;6800;50.940;6.940;2023-05-22T20:28:12;100804.44;;;29.78;40.17
13456;BME280;6800;50.940;6.940;2023-05-22T20:32:13;100804.84;;;29.82;40.09
13456;BME280;6800;50.940;6.940;2023-05-22T20:36:15;100800.72;;;29.86;39.43
13456;BME280;6800;50.940;6.940;2023-05-22T20:40:18;100800.28;;;29.76;40.32
13456;BME280;6800;50.940;6.940;2023-05-22T20:44:19;100801.72;;;29.52;40.28
13456;BME280;6800;50.940;6.940;2023-05-22T20:48:23;100808.56;;;29.61;40.30
13456;BME280;6800;50.940;6.940;2023-05-22T20:52:25;100810.22;;;29.56;40.08
13456;BME280;6800;50.940;6.940;2023-05-22T20:56:30;100816.63;;;29.28;40.84
13456;BME280;6800;50.940;6.940;2023-05-22T21:00:32;100811.88;;;29.37;40.79
13456;BME280;6800;50.940;6.940;2023-05-22T21:04:35;100807.91;;;29.33;40.90
13456;BME280;6800;50.940;6.940;2023-05-22T21:08:36;100810.19;;;29.29;41.37
13456;BME280;6800;50.940;6.940;2023-05-22T21:12:37;100808.34;;;29.30;40.80
13456;BME280;6800;50.940;6.940;2023-05-22T21:16:39;100799.03;;;29.26;41.32
13456;BME280;6800;50.940;6.940;2023-05-22T21:20:40;100807.88;;;29.13;41.45
13456;BME280;6800;50.940;6.940;2023-05-22T21:24:42;100808.88;;;29.06;41.36
13456;BME280;6800;50.940;6.940;2023-05-22T21:28:43;100797.69;;;28.89;42.05
13456;BME280;6800;50.940;6.940;2023-05-22T21:32:45;100811.75;;;28.91;41.51
13456;BME280;6800;50.940;6.940;2023-05-22T21:36:46;100809.50;;;28.47;42.35